AAR198 RKSI-ZBAA
Flight info
| Callsign | AAR198 |
|---|---|
| Flight time | 1h 35m |
| Altitude | 39100 |
| Route | NOPIK2Y NOPIK Y697 AGAVO A591 IKEKA W4 HCH W200 DOVIV W55 DUMAP DUMA9Z |
| Aircraft | B77W/H-SDE2E3FGHIJ5LORVWXY/LB1D1 |
Departure
| Time | 2026-05-04 08:33 |
|---|---|
| Airport | Incheon International Airport (RKSI) |
Arrival
| Time | 2026-05-04 10:08 |
|---|---|
| Airport | Beijing Capital International Airport (ZBAA) |
| Time | Latitude | Longitude | Altitude | Speed | Heading |
|---|---|---|---|---|---|
| 2026-05-04 08:14 | 37.46189 | 126.43268 | 37 ft | 0 kts | 55° |
| 2026-05-04 08:20 | 37.46180 | 126.43252 | 35 ft | 3 kts | 55° |
| 2026-05-04 08:21 | 37.46170 | 126.43233 | 37 ft | 3 kts | 55° |
| 2026-05-04 08:21 | 37.46159 | 126.43214 | 34 ft | 3 kts | 55° |
| 2026-05-04 08:21 | 37.46148 | 126.43194 | 35 ft | 3 kts | 55° |
| 2026-05-04 08:21 | 37.46139 | 126.43174 | 35 ft | 0 kts | 75° |
| 2026-05-04 08:24 | 37.46139 | 126.43180 | 36 ft | 5 kts | 83° |
| 2026-05-04 08:24 | 37.46116 | 126.43212 | 36 ft | 5 kts | 147° |
| 2026-05-04 08:24 | 37.46084 | 126.43238 | 37 ft | 5 kts | 148° |
| 2026-05-04 08:25 | 37.46049 | 126.43263 | 37 ft | 8 kts | 150° |
| 2026-05-04 08:25 | 37.45995 | 126.43304 | 37 ft | 12 kts | 145° |
| 2026-05-04 08:25 | 37.45891 | 126.43397 | 35 ft | 24 kts | 144° |
| 2026-05-04 08:25 | 37.45750 | 126.43515 | 37 ft | 24 kts | 160° |
| 2026-05-04 08:26 | 37.45672 | 126.43592 | 37 ft | 12 kts | 138° |
| 2026-05-04 08:27 | 37.44961 | 126.44216 | 37 ft | 14 kts | 147° |
| 2026-05-04 08:28 | 37.44834 | 126.44330 | 36 ft | 27 kts | 144° |
| 2026-05-04 08:28 | 37.44689 | 126.44461 | 36 ft | 26 kts | 144° |
| 2026-05-04 08:28 | 37.44575 | 126.44535 | 36 ft | 14 kts | 183° |
| 2026-05-04 08:28 | 37.44537 | 126.44498 | 36 ft | 6 kts | 225° |
| 2026-05-04 08:29 | 37.44510 | 126.44452 | 36 ft | 7 kts | 239° |
| 2026-05-04 08:29 | 37.44486 | 126.44403 | 36 ft | 7 kts | 237° |
| 2026-05-04 08:29 | 37.44454 | 126.44345 | 36 ft | 10 kts | 235° |
| 2026-05-04 08:31 | 37.44479 | 126.44049 | 36 ft | 0 kts | 323° |
| 2026-05-04 08:33 | 37.49253 | 126.38638 | 3315 ft | 216 kts | 309° |
| 2026-05-04 08:33 | 37.50078 | 126.37059 | 3884 ft | 226 kts | 292° |
| 2026-05-04 08:35 | 37.50754 | 126.21288 | 9378 ft | 274 kts | 275° |
| 2026-05-04 08:35 | 37.50782 | 126.19692 | 9927 ft | 275 kts | 272° |
| 2026-05-04 08:35 | 37.50347 | 126.17279 | 10369 ft | 297 kts | 247° |
| 2026-05-04 08:35 | 37.49217 | 126.14972 | 10551 ft | 323 kts | 239° |
| 2026-05-04 08:37 | 37.40881 | 125.98509 | 14229 ft | 389 kts | 257° |
| 2026-05-04 08:37 | 37.40583 | 125.95173 | 14893 ft | 386 kts | 272° |
| 2026-05-04 08:37 | 37.40588 | 125.91758 | 15507 ft | 394 kts | 272° |
| 2026-05-04 08:38 | 37.40582 | 125.88296 | 16294 ft | 398 kts | 272° |
| 2026-05-04 08:38 | 37.40563 | 125.84807 | 17093 ft | 401 kts | 272° |
| 2026-05-04 08:38 | 37.40533 | 125.81311 | 17816 ft | 406 kts | 272° |
| 2026-05-04 08:40 | 37.40212 | 125.55745 | 22423 ft | 427 kts | 271° |
| 2026-05-04 08:40 | 37.40165 | 125.52001 | 23047 ft | 430 kts | 271° |
| 2026-05-04 08:40 | 37.40119 | 125.48239 | 23685 ft | 432 kts | 271° |
| 2026-05-04 08:41 | 37.40073 | 125.44454 | 24240 ft | 433 kts | 271° |
| 2026-05-04 08:41 | 37.40027 | 125.40666 | 24802 ft | 433 kts | 271° |
| 2026-05-04 08:41 | 37.39981 | 125.36875 | 25362 ft | 434 kts | 271° |
| 2026-05-04 08:41 | 37.39935 | 125.33073 | 25865 ft | 436 kts | 271° |
| 2026-05-04 08:42 | 37.39890 | 125.29248 | 26349 ft | 438 kts | 271° |
| 2026-05-04 08:42 | 37.39746 | 125.25411 | 26807 ft | 441 kts | 266° |
| 2026-05-04 08:42 | 37.39277 | 125.21639 | 27242 ft | 445 kts | 260° |
| 2026-05-04 08:42 | 37.38578 | 125.17841 | 27686 ft | 446 kts | 259° |
| 2026-05-04 08:43 | 37.37868 | 125.14038 | 28117 ft | 448 kts | 259° |
| 2026-05-04 08:43 | 37.37156 | 125.10219 | 28504 ft | 449 kts | 259° |
| 2026-05-04 08:43 | 37.36448 | 125.06386 | 28877 ft | 450 kts | 260° |
| 2026-05-04 08:43 | 37.35744 | 125.02549 | 29213 ft | 452 kts | 260° |
| 2026-05-04 08:44 | 37.35040 | 124.98690 | 29529 ft | 453 kts | 260° |
| 2026-05-04 08:44 | 37.34336 | 124.94825 | 29824 ft | 455 kts | 260° |
| 2026-05-04 08:46 | 37.29399 | 124.67877 | 32067 ft | 449 kts | 259° |
| 2026-05-04 08:46 | 37.28705 | 124.64115 | 32390 ft | 448 kts | 259° |
| 2026-05-04 08:46 | 37.28001 | 124.60311 | 32713 ft | 447 kts | 259° |
| 2026-05-04 08:46 | 37.27298 | 124.56520 | 33030 ft | 446 kts | 259° |
| 2026-05-04 08:47 | 37.26594 | 124.52727 | 33348 ft | 445 kts | 259° |
| 2026-05-04 08:47 | 37.25892 | 124.48950 | 33653 ft | 444 kts | 259° |
| 2026-05-04 08:47 | 37.25187 | 124.45168 | 33972 ft | 443 kts | 258° |
| 2026-05-04 08:47 | 37.24484 | 124.41407 | 34246 ft | 443 kts | 258° |
| 2026-05-04 08:48 | 37.23780 | 124.37644 | 34501 ft | 442 kts | 258° |
| 2026-05-04 08:48 | 37.23078 | 124.33897 | 34759 ft | 441 kts | 258° |
| 2026-05-04 08:48 | 37.22374 | 124.30146 | 35011 ft | 440 kts | 258° |
| 2026-05-04 08:48 | 37.21670 | 124.26405 | 35262 ft | 440 kts | 258° |
| 2026-05-04 08:49 | 37.20968 | 124.22680 | 35508 ft | 439 kts | 258° |
| 2026-05-04 08:50 | 37.16297 | 124.00609 | 36829 ft | 439 kts | 249° |
| 2026-05-04 08:50 | 37.15015 | 123.97134 | 37041 ft | 440 kts | 246° |
| 2026-05-04 08:51 | 37.13526 | 123.93776 | 37241 ft | 441 kts | 241° |
| 2026-05-04 08:51 | 37.11873 | 123.90528 | 37396 ft | 442 kts | 240° |
| 2026-05-04 08:51 | 37.10191 | 123.87309 | 37611 ft | 441 kts | 240° |
| 2026-05-04 08:51 | 37.08503 | 123.84099 | 37808 ft | 441 kts | 240° |
| 2026-05-04 08:52 | 37.06823 | 123.80894 | 37992 ft | 440 kts | 240° |
| 2026-05-04 08:52 | 37.05144 | 123.77677 | 38162 ft | 440 kts | 240° |
| 2026-05-04 08:52 | 37.03497 | 123.74507 | 38323 ft | 440 kts | 240° |
| 2026-05-04 08:52 | 37.01832 | 123.71298 | 38498 ft | 440 kts | 240° |
| 2026-05-04 08:53 | 37.00166 | 123.68085 | 38678 ft | 439 kts | 240° |
| 2026-05-04 08:54 | 36.88510 | 123.45685 | 39448 ft | 439 kts | 240° |
| 2026-05-04 08:55 | 36.86837 | 123.42484 | 39552 ft | 439 kts | 240° |
| 2026-05-04 08:55 | 36.85312 | 123.39202 | 39590 ft | 434 kts | 251° |
| 2026-05-04 08:55 | 36.84530 | 123.35593 | 39625 ft | 432 kts | 263° |
| 2026-05-04 08:55 | 36.84329 | 123.31847 | 39688 ft | 432 kts | 271° |
| 2026-05-04 08:57 | 36.90116 | 123.06533 | 40142 ft | 435 kts | 285° |
| 2026-05-04 09:01 | 37.02177 | 122.55826 | 40147 ft | 435 kts | 285° |
| 2026-05-04 09:01 | 37.03883 | 122.48566 | 40149 ft | 434 kts | 285° |
| 2026-05-04 09:02 | 37.05584 | 122.41311 | 40153 ft | 434 kts | 285° |
| 2026-05-04 09:02 | 37.07879 | 122.34370 | 40148 ft | 438 kts | 300° |
| 2026-05-04 09:03 | 37.11805 | 122.28481 | 40139 ft | 447 kts | 316° |
| 2026-05-04 09:03 | 37.16555 | 122.23474 | 40139 ft | 442 kts | 307° |
| 2026-05-04 09:04 | 37.19894 | 122.17085 | 40138 ft | 436 kts | 291° |
| 2026-05-04 09:04 | 37.21829 | 122.09890 | 40106 ft | 436 kts | 285° |
| 2026-05-04 09:05 | 37.23583 | 122.02630 | 40025 ft | 438 kts | 285° |
| 2026-05-04 09:05 | 37.25428 | 121.95361 | 40131 ft | 436 kts | 287° |
| 2026-05-04 09:06 | 37.27321 | 121.88110 | 40129 ft | 437 kts | 287° |
| 2026-05-04 09:08 | 37.34796 | 121.58947 | 40126 ft | 440 kts | 287° |
| 2026-05-04 09:08 | 37.36656 | 121.51624 | 40016 ft | 441 kts | 286° |
| 2026-05-04 09:09 | 37.38507 | 121.44317 | 40065 ft | 437 kts | 286° |
| 2026-05-04 09:09 | 37.40349 | 121.37020 | 40073 ft | 439 kts | 286° |
| 2026-05-04 09:10 | 37.42198 | 121.29673 | 40075 ft | 441 kts | 286° |
| 2026-05-04 09:10 | 37.44049 | 121.22303 | 40073 ft | 443 kts | 286° |
| 2026-05-04 09:11 | 37.46022 | 121.15005 | 40069 ft | 443 kts | 290° |
| 2026-05-04 09:11 | 37.48332 | 121.07795 | 40068 ft | 443 kts | 291° |
| 2026-05-04 09:12 | 37.50653 | 121.00605 | 40065 ft | 443 kts | 290° |
| 2026-05-04 09:14 | 37.59781 | 120.71855 | 40058 ft | 441 kts | 291° |
| 2026-05-04 09:14 | 37.62146 | 120.64718 | 40056 ft | 441 kts | 291° |
| 2026-05-04 09:15 | 37.64488 | 120.57603 | 40059 ft | 441 kts | 291° |
| 2026-05-04 09:15 | 37.67189 | 120.50647 | 40058 ft | 443 kts | 298° |
| 2026-05-04 09:17 | 37.81120 | 120.20188 | 38957 ft | 458 kts | 298° |
| 2026-05-04 09:18 | 37.82710 | 120.16672 | 38795 ft | 461 kts | 298° |
| 2026-05-04 09:18 | 37.84301 | 120.13152 | 38781 ft | 461 kts | 298° |
| 2026-05-04 09:18 | 37.87481 | 120.06108 | 38747 ft | 461 kts | 298° |
| 2026-05-04 09:19 | 37.90640 | 119.99091 | 38728 ft | 462 kts | 298° |
| 2026-05-04 09:19 | 37.93825 | 119.92003 | 38709 ft | 462 kts | 298° |
| 2026-05-04 09:20 | 37.97000 | 119.84922 | 38639 ft | 459 kts | 298° |
| 2026-05-04 09:20 | 37.98568 | 119.81419 | 38394 ft | 456 kts | 298° |
| 2026-05-04 09:20 | 38.00135 | 119.77913 | 37929 ft | 457 kts | 299° |
| 2026-05-04 09:21 | 38.01057 | 119.75849 | 37594 ft | 459 kts | 299° |
| 2026-05-04 09:21 | 38.02445 | 119.72737 | 37260 ft | 468 kts | 299° |
| 2026-05-04 09:21 | 38.05641 | 119.65566 | 37248 ft | 469 kts | 299° |
| 2026-05-04 09:22 | 38.08840 | 119.58372 | 36867 ft | 464 kts | 300° |
| 2026-05-04 09:22 | 38.10410 | 119.54828 | 36095 ft | 465 kts | 299° |
| 2026-05-04 09:22 | 38.11854 | 119.51186 | 35114 ft | 460 kts | 295° |
| 2026-05-04 09:23 | 38.13097 | 119.47419 | 34458 ft | 466 kts | 294° |
| 2026-05-04 09:23 | 38.14330 | 119.43574 | 34316 ft | 472 kts | 294° |
| 2026-05-04 09:23 | 38.15578 | 119.39670 | 34142 ft | 478 kts | 294° |
| 2026-05-04 09:23 | 38.16831 | 119.35760 | 34062 ft | 477 kts | 294° |
| 2026-05-04 09:25 | 38.26463 | 119.05935 | 34051 ft | 477 kts | 294° |
| 2026-05-04 09:26 | 38.28974 | 118.98120 | 34040 ft | 473 kts | 294° |
| 2026-05-04 09:26 | 38.30195 | 118.94306 | 33983 ft | 458 kts | 294° |
| 2026-05-04 09:26 | 38.31369 | 118.90635 | 33253 ft | 444 kts | 294° |
| 2026-05-04 09:27 | 38.32515 | 118.87047 | 31872 ft | 437 kts | 294° |
| 2026-05-04 09:27 | 38.33688 | 118.83389 | 30491 ft | 454 kts | 294° |
| 2026-05-04 09:27 | 38.34884 | 118.79649 | 29830 ft | 452 kts | 294° |
| 2026-05-04 09:27 | 38.36053 | 118.75972 | 29610 ft | 440 kts | 294° |
| 2026-05-04 09:28 | 38.37191 | 118.72397 | 29543 ft | 428 kts | 294° |
| 2026-05-04 09:28 | 38.38285 | 118.68970 | 29533 ft | 416 kts | 294° |
| 2026-05-04 09:28 | 38.39391 | 118.65512 | 28567 ft | 426 kts | 294° |
| 2026-05-04 09:28 | 38.40515 | 118.62001 | 27876 ft | 429 kts | 294° |
| 2026-05-04 09:29 | 38.41645 | 118.58462 | 27185 ft | 433 kts | 294° |
| 2026-05-04 09:29 | 38.42769 | 118.54929 | 26518 ft | 436 kts | 294° |
| 2026-05-04 09:29 | 38.43914 | 118.51325 | 25854 ft | 438 kts | 294° |
| 2026-05-04 09:29 | 38.45059 | 118.47715 | 25197 ft | 440 kts | 294° |
| 2026-05-04 09:30 | 38.46193 | 118.44135 | 24528 ft | 427 kts | 294° |
| 2026-05-04 09:30 | 38.47288 | 118.40670 | 24028 ft | 422 kts | 294° |
| 2026-05-04 09:30 | 38.48407 | 118.37136 | 23859 ft | 432 kts | 294° |
| 2026-05-04 09:30 | 38.49536 | 118.33560 | 23690 ft | 436 kts | 294° |
| 2026-05-04 09:31 | 38.50654 | 118.30011 | 23633 ft | 434 kts | 294° |
| 2026-05-04 09:31 | 38.51776 | 118.26442 | 23632 ft | 433 kts | 294° |
| 2026-05-04 09:31 | 38.52899 | 118.22866 | 23626 ft | 434 kts | 294° |
| 2026-05-04 09:31 | 38.54025 | 118.19277 | 23625 ft | 434 kts | 294° |
| 2026-05-04 09:32 | 38.55152 | 118.15681 | 23620 ft | 434 kts | 294° |
| 2026-05-04 09:32 | 38.56273 | 118.12097 | 23615 ft | 435 kts | 294° |
| 2026-05-04 09:34 | 38.64216 | 117.88324 | 18195 ft | 395 kts | 296° |
| 2026-05-04 09:34 | 38.65339 | 117.85159 | 17306 ft | 393 kts | 295° |
| 2026-05-04 09:34 | 38.66458 | 117.81980 | 16924 ft | 391 kts | 295° |
| 2026-05-04 09:34 | 38.67576 | 117.78789 | 16578 ft | 392 kts | 295° |
| 2026-05-04 09:35 | 38.68683 | 117.75613 | 16411 ft | 388 kts | 295° |
| 2026-05-04 09:35 | 38.69779 | 117.72461 | 16335 ft | 385 kts | 295° |
| 2026-05-04 09:35 | 38.70864 | 117.69337 | 16268 ft | 383 kts | 295° |
| 2026-05-04 09:35 | 38.71945 | 117.66221 | 16203 ft | 381 kts | 295° |
| 2026-05-04 09:37 | 38.79354 | 117.44773 | 15795 ft | 373 kts | 295° |
| 2026-05-04 09:37 | 38.80399 | 117.41736 | 15732 ft | 372 kts | 295° |
| 2026-05-04 09:38 | 38.81456 | 117.38659 | 15713 ft | 387 kts | 295° |
| 2026-05-04 09:38 | 38.82548 | 117.35482 | 15634 ft | 386 kts | 295° |
| 2026-05-04 09:38 | 38.83622 | 117.32348 | 15569 ft | 381 kts | 295° |
| 2026-05-04 09:38 | 38.84691 | 117.29268 | 15500 ft | 374 kts | 298° |
| 2026-05-04 09:39 | 38.86212 | 117.26568 | 15441 ft | 377 kts | 317° |
| 2026-05-04 09:39 | 38.88297 | 117.24587 | 15390 ft | 379 kts | 332° |
| 2026-05-04 09:39 | 38.90741 | 117.23345 | 15345 ft | 376 kts | 341° |
| 2026-05-04 09:39 | 38.93229 | 117.22310 | 15285 ft | 375 kts | 341° |
| 2026-05-04 09:40 | 38.95709 | 117.21282 | 15220 ft | 374 kts | 341° |
| 2026-05-04 09:40 | 38.98176 | 117.20231 | 15174 ft | 373 kts | 341° |
| 2026-05-04 09:40 | 39.00637 | 117.19155 | 15107 ft | 373 kts | 340° |
| 2026-05-04 09:40 | 39.03095 | 117.18070 | 15043 ft | 373 kts | 340° |
| 2026-05-04 09:41 | 39.05523 | 117.16994 | 14983 ft | 374 kts | 340° |
| 2026-05-04 09:42 | 39.22704 | 117.09368 | 14593 ft | 372 kts | 340° |
| 2026-05-04 09:43 | 39.25158 | 117.08276 | 14536 ft | 371 kts | 340° |
| 2026-05-04 09:43 | 39.27604 | 117.07186 | 14472 ft | 370 kts | 340° |
| 2026-05-04 09:43 | 39.30037 | 117.06100 | 14420 ft | 370 kts | 340° |
| 2026-05-04 09:43 | 39.32444 | 117.05026 | 14356 ft | 369 kts | 340° |
| 2026-05-04 09:44 | 39.34876 | 117.03941 | 14305 ft | 368 kts | 340° |
| 2026-05-04 09:44 | 39.37302 | 117.02858 | 14248 ft | 368 kts | 340° |
| 2026-05-04 09:44 | 39.39729 | 117.01772 | 14189 ft | 368 kts | 340° |
| 2026-05-04 09:46 | 39.56732 | 116.94844 | 13461 ft | 364 kts | 352° |
| 2026-05-04 09:46 | 39.59271 | 116.94514 | 13152 ft | 365 kts | 353° |
| 2026-05-04 09:46 | 39.61803 | 116.94205 | 12847 ft | 364 kts | 352° |
| 2026-05-04 09:47 | 39.64298 | 116.93885 | 12552 ft | 364 kts | 352° |
| 2026-05-04 09:47 | 39.66829 | 116.93541 | 12249 ft | 364 kts | 352° |
| 2026-05-04 09:49 | 39.83780 | 116.91033 | 10240 ft | 327 kts | 350° |
| 2026-05-04 09:49 | 39.86013 | 116.90695 | 9953 ft | 321 kts | 350° |
| 2026-05-04 09:49 | 39.88221 | 116.90362 | 9771 ft | 312 kts | 350° |
| 2026-05-04 09:51 | 39.99887 | 116.88594 | 8452 ft | 274 kts | 349° |
| 2026-05-04 09:51 | 40.01744 | 116.88240 | 8237 ft | 264 kts | 340° |
| 2026-05-04 09:51 | 40.03290 | 116.87068 | 8023 ft | 257 kts | 311° |
| 2026-05-04 09:51 | 40.04251 | 116.85137 | 7836 ft | 254 kts | 290° |
| 2026-05-04 09:52 | 40.04654 | 116.82901 | 7629 ft | 254 kts | 270° |
| 2026-05-04 09:52 | 40.04533 | 116.80603 | 7583 ft | 253 kts | 263° |
| 2026-05-04 09:52 | 40.04281 | 116.78343 | 7530 ft | 255 kts | 256° |
| 2026-05-04 09:52 | 40.03460 | 116.76286 | 7516 ft | 260 kts | 229° |
| 2026-05-04 09:53 | 40.01997 | 116.74894 | 7505 ft | 264 kts | 206° |
| 2026-05-04 09:53 | 40.00212 | 116.74339 | 7494 ft | 267 kts | 182° |
| 2026-05-04 09:53 | 39.98353 | 116.74566 | 7513 ft | 272 kts | 176° |
| 2026-05-04 09:53 | 39.96456 | 116.74872 | 7460 ft | 275 kts | 176° |
| 2026-05-04 09:54 | 39.94533 | 116.75191 | 7096 ft | 281 kts | 176° |
| 2026-05-04 09:54 | 39.92602 | 116.75508 | 6665 ft | 283 kts | 176° |
| 2026-05-04 09:54 | 39.90636 | 116.75826 | 6289 ft | 281 kts | 176° |
| 2026-05-04 09:54 | 39.88762 | 116.76049 | 5865 ft | 261 kts | 179° |
| 2026-05-04 09:55 | 39.86992 | 116.76283 | 5370 ft | 248 kts | 175° |
| 2026-05-04 09:55 | 39.85319 | 116.76577 | 4930 ft | 239 kts | 175° |
| 2026-05-04 09:55 | 39.83705 | 116.76857 | 4497 ft | 235 kts | 175° |
| 2026-05-04 09:55 | 39.82067 | 116.77129 | 4326 ft | 240 kts | 175° |
| 2026-05-04 09:56 | 39.80380 | 116.77400 | 4312 ft | 244 kts | 175° |
| 2026-05-04 09:56 | 39.78709 | 116.77666 | 4302 ft | 240 kts | 175° |
| 2026-05-04 09:56 | 39.77054 | 116.77926 | 4287 ft | 239 kts | 176° |
| 2026-05-04 09:56 | 39.75398 | 116.78179 | 4304 ft | 239 kts | 176° |
| 2026-05-04 09:57 | 39.73757 | 116.78430 | 4293 ft | 240 kts | 176° |
| 2026-05-04 09:57 | 39.72091 | 116.78683 | 4296 ft | 240 kts | 176° |
| 2026-05-04 09:57 | 39.70431 | 116.78937 | 4294 ft | 239 kts | 176° |
| 2026-05-04 09:57 | 39.68803 | 116.79098 | 4291 ft | 233 kts | 188° |
| 2026-05-04 09:58 | 39.67318 | 116.78374 | 4302 ft | 230 kts | 218° |
| 2026-05-04 09:58 | 39.66285 | 116.76796 | 4268 ft | 230 kts | 240° |
| 2026-05-04 09:58 | 39.65796 | 116.74839 | 4251 ft | 227 kts | 262° |
| 2026-05-04 10:00 | 39.69626 | 116.63398 | 3953 ft | 215 kts | 346° |
| 2026-05-04 10:00 | 39.71105 | 116.63096 | 3976 ft | 214 kts | 349° |
| 2026-05-04 10:02 | 39.81713 | 116.61415 | 4013 ft | 222 kts | 349° |
| 2026-05-04 10:04 | 39.92192 | 116.59792 | 3048 ft | 190 kts | 349° |
| 2026-05-04 10:04 | 39.93445 | 116.59597 | 2792 ft | 176 kts | 349° |
| 2026-05-04 10:04 | 39.94634 | 116.59408 | 2600 ft | 171 kts | 349° |
| 2026-05-04 10:04 | 39.95813 | 116.59225 | 2418 ft | 170 kts | 349° |
| 2026-05-04 10:05 | 39.96979 | 116.59042 | 2163 ft | 168 kts | 349° |
| 2026-05-04 10:05 | 39.98133 | 116.58862 | 1941 ft | 166 kts | 349° |
| 2026-05-04 10:05 | 39.99274 | 116.58686 | 1736 ft | 164 kts | 348° |
| 2026-05-04 10:05 | 40.00399 | 116.58507 | 1493 ft | 163 kts | 349° |
| 2026-05-04 10:06 | 40.01507 | 116.58337 | 1283 ft | 160 kts | 348° |
| 2026-05-04 10:06 | 40.02559 | 116.58172 | 1108 ft | 160 kts | 348° |
| 2026-05-04 10:06 | 40.03664 | 116.57995 | 889 ft | 163 kts | 351° |
| 2026-05-04 10:08 | 40.09289 | 116.57118 | 125 ft | 42 kts | 353° |
| 2026-05-04 10:08 | 40.09480 | 116.57112 | 126 ft | 22 kts | 6° |
| 2026-05-04 10:08 | 40.09622 | 116.57161 | 125 ft | 21 kts | 22° |
| 2026-05-04 10:08 | 40.09700 | 116.57223 | 125 ft | 8 kts | 67° |
| 2026-05-04 10:09 | 40.09697 | 116.57263 | 125 ft | 8 kts | 106° |
| 2026-05-04 10:09 | 40.09670 | 116.57284 | 124 ft | 9 kts | 159° |
| 2026-05-04 10:09 | 40.09610 | 116.57294 | 125 ft | 9 kts | 170° |
| 2026-05-04 10:09 | 40.09550 | 116.57309 | 125 ft | 9 kts | 173° |
| 2026-05-04 10:10 | 40.09488 | 116.57311 | 126 ft | 9 kts | 178° |
| 2026-05-04 10:10 | 40.09448 | 116.57317 | 125 ft | 9 kts | 172° |
| 2026-05-04 10:10 | 40.09387 | 116.57327 | 126 ft | 9 kts | 172° |
| 2026-05-04 10:10 | 40.09323 | 116.57338 | 126 ft | 9 kts | 172° |
| 2026-05-04 10:11 | 40.09237 | 116.57353 | 126 ft | 9 kts | 172° |
| 2026-05-04 10:11 | 40.09172 | 116.57364 | 125 ft | 9 kts | 172° |
| 2026-05-04 10:11 | 40.09128 | 116.57369 | 127 ft | 10 kts | 176° |
| 2026-05-04 10:11 | 40.09070 | 116.57377 | 126 ft | 6 kts | 174° |
| 2026-05-04 10:12 | 40.09011 | 116.57386 | 126 ft | 12 kts | 172° |
| 2026-05-04 10:12 | 40.08926 | 116.57401 | 126 ft | 12 kts | 173° |
| 2026-05-04 10:12 | 40.08841 | 116.57413 | 125 ft | 12 kts | 173° |
| 2026-05-04 10:12 | 40.08745 | 116.57428 | 125 ft | 17 kts | 173° |
| 2026-05-04 10:13 | 40.08626 | 116.57444 | 127 ft | 17 kts | 172° |
| 2026-05-04 10:13 | 40.08509 | 116.57466 | 125 ft | 17 kts | 172° |
| 2026-05-04 10:13 | 40.08391 | 116.57485 | 126 ft | 18 kts | 173° |
| 2026-05-04 10:13 | 40.08306 | 116.57519 | 123 ft | 12 kts | 127° |
| 2026-05-04 10:14 | 40.08307 | 116.57678 | 127 ft | 22 kts | 83° |
| 2026-05-04 10:14 | 40.08326 | 116.57870 | 125 ft | 22 kts | 82° |
| 2026-05-04 10:16 | 40.08327 | 116.58935 | 125 ft | 10 kts | 83° |
| 2026-05-04 10:16 | 40.08350 | 116.59024 | 124 ft | 10 kts | 78° |
| 2026-05-04 10:16 | 40.08362 | 116.59117 | 126 ft | 10 kts | 82° |
| 2026-05-04 10:16 | 40.08369 | 116.59202 | 127 ft | 6 kts | 84° |
| 2026-05-04 10:17 | 40.08369 | 116.59246 | 127 ft | 2 kts | 109° |
| 2026-05-04 10:17 | 40.08355 | 116.59261 | 123 ft | 3 kts | 140° |
| 2026-05-04 10:19 | 40.07653 | 116.59394 | 125 ft | 23 kts | 173° |
| 2026-05-04 10:19 | 40.07494 | 116.59418 | 124 ft | 23 kts | 173° |
| 2026-05-04 10:19 | 40.07386 | 116.59465 | 127 ft | 16 kts | 146° |
| 2026-05-04 10:19 | 40.07281 | 116.59511 | 125 ft | 16 kts | 175° |
| 2026-05-04 10:20 | 40.07169 | 116.59525 | 125 ft | 16 kts | 175° |
| 2026-05-04 10:20 | 40.07058 | 116.59547 | 126 ft | 16 kts | 175° |
| 2026-05-04 10:20 | 40.06947 | 116.59560 | 125 ft | 16 kts | 174° |
| 2026-05-04 10:20 | 40.06835 | 116.59579 | 125 ft | 16 kts | 172° |
| 2026-05-04 10:21 | 40.06723 | 116.59599 | 126 ft | 16 kts | 173° |
| 2026-05-04 10:21 | 40.06612 | 116.59615 | 126 ft | 16 kts | 173° |
| 2026-05-04 10:21 | 40.06506 | 116.59631 | 125 ft | 14 kts | 173° |
| 2026-05-04 10:21 | 40.06424 | 116.59643 | 125 ft | 17 kts | 173° |
| 2026-05-04 10:22 | 40.06237 | 116.59683 | 123 ft | 11 kts | 144° |
| 2026-05-04 10:22 | 40.06226 | 116.59775 | 125 ft | 11 kts | 82° |
| 2026-05-04 10:22 | 40.06235 | 116.59872 | 124 ft | 11 kts | 84° |
| 2026-05-04 10:23 | 40.06241 | 116.59970 | 128 ft | 11 kts | 85° |
| 2026-05-04 10:23 | 40.06248 | 116.60066 | 127 ft | 11 kts | 82° |
| 2026-05-04 10:25 | 40.06154 | 116.60540 | 123 ft | 6 kts | 163° |
| 2026-05-04 10:25 | 40.06133 | 116.60560 | 124 ft | 7 kts | 126° |
| 2026-05-04 10:25 | 40.06127 | 116.60627 | 125 ft | 7 kts | 86° |
| 2026-05-04 10:25 | 40.06128 | 116.60641 | 125 ft | 0 kts | 86° |